createdAt,value
2022-10-12T00:00:39.384Z,100302.75
2022-10-12T00:01:47.372Z,100302.69
2022-10-12T00:02:53.839Z,100299.25
2022-10-12T00:03:59.116Z,100297.38
2022-10-12T00:05:03.489Z,100307.13
2022-10-12T00:06:15.270Z,100302.06
2022-10-12T00:07:20.431Z,100298.88
2022-10-12T00:08:25.174Z,100303.19
2022-10-12T00:09:31.926Z,100301.31
2022-10-12T00:10:42.160Z,100305.75
2022-10-12T00:11:47.381Z,100296.09
2022-10-12T00:12:53.309Z,100301.25
2022-10-12T00:14:01.663Z,100303.91
2022-10-12T00:15:08.291Z,100303.97
2022-10-12T00:16:15.470Z,100306.69
2022-10-12T00:17:19.585Z,100299.59
2022-10-12T00:18:24.533Z,100298.81
2022-10-12T00:19:29.568Z,100306.13
2022-10-12T00:20:35.301Z,100300.91
2022-10-12T00:21:40.855Z,100302.69
2022-10-12T00:22:45.857Z,100308.09
2022-10-12T00:23:49.861Z,100304.59
2022-10-12T00:24:54.016Z,100305.69
2022-10-12T00:26:06.755Z,100316.28
2022-10-12T00:27:10.424Z,100311.09
2022-10-12T00:28:14.121Z,100318.19
2022-10-12T00:29:17.871Z,100314.88
2022-10-12T00:30:21.797Z,100309.53
2022-10-12T00:31:26.567Z,100305.44
2022-10-12T00:32:30.212Z,100315.19
2022-10-12T00:33:33.959Z,100311.59
2022-10-12T00:34:37.572Z,100304.59
2022-10-12T00:35:41.955Z,100315.19
2022-10-12T00:36:46.074Z,100305.50
2022-10-12T00:37:57.917Z,100309.88
2022-10-12T00:39:08.774Z,100311.59
2022-10-12T00:40:12.874Z,100307.16
2022-10-12T00:41:21.411Z,100303.78
2022-10-12T00:42:26.907Z,100309.88
2022-10-12T00:43:42.043Z,100305.38
2022-10-12T00:44:50.378Z,100308.88
2022-10-12T00:45:55.116Z,100314.16
2022-10-12T00:47:03.328Z,100309.72
2022-10-12T00:48:08.881Z,100307.22
2022-10-12T00:49:21.877Z,100314.31
2022-10-12T00:50:34.904Z,100304.63
2022-10-12T00:51:47.003Z,100303.84
2022-10-12T00:53:18.317Z,100313.56
2022-10-12T00:54:38.512Z,100304.94
2022-10-12T00:55:59.760Z,100313.78
2022-10-12T00:57:08.932Z,100308.69
2022-10-12T00:58:15.538Z,100310.53
2022-10-12T00:59:31.088Z,100313.25
2022-10-12T01:00:38.322Z,100303.69
2022-10-12T01:01:45.453Z,100312.47
2022-10-12T01:02:53.850Z,100300.09
2022-10-12T01:04:01.995Z,100309.03
2022-10-12T01:05:12.417Z,100305.38
2022-10-12T01:06:18.689Z,100305.53
2022-10-12T01:07:23.734Z,100308.97
2022-10-12T01:08:30.352Z,100310.88
2022-10-12T01:09:40.447Z,100309.91
2022-10-12T01:10:45.321Z,100310.75
2022-10-12T01:11:50.695Z,100310.75
2022-10-12T01:12:55.008Z,100308.22
2022-10-12T01:13:59.367Z,100306.50
2022-10-12T01:15:08.911Z,100303.94
2022-10-12T01:16:55.252Z,100310.34
2022-10-12T01:18:27.320Z,100314.72
2022-10-12T01:20:27.784Z,100317.34
2022-10-12T01:21:42.350Z,100320.94
2022-10-12T01:23:40.188Z,100306.91
2022-10-12T01:25:40.550Z,100312.28
2022-10-12T01:27:00.287Z,100313.47
2022-10-12T01:28:37.152Z,100306.31
2022-10-12T01:30:10.274Z,100304.63
2022-10-12T01:31:58.785Z,100301.03
2022-10-12T01:33:32.416Z,100306.63
2022-10-12T01:35:15.992Z,100314.41
2022-10-12T01:36:46.400Z,100309.44
2022-10-12T01:38:10.294Z,100305.09
2022-10-12T01:39:36.862Z,100313.16
2022-10-12T01:41:27.824Z,100301.78
2022-10-12T01:42:38.330Z,100306.94
2022-10-12T01:43:46.577Z,100308.81
2022-10-12T01:44:50.517Z,100307.97
2022-10-12T01:46:17.049Z,100303.50
2022-10-12T01:47:23.157Z,100302.69
2022-10-12T01:48:29.874Z,100295.69
2022-10-12T01:49:38.906Z,100302.69
2022-10-12T01:51:01.264Z,100302.75
2022-10-12T01:52:32.285Z,100303.63
2022-10-12T01:54:01.936Z,100312.41
2022-10-12T01:55:31.815Z,100316.84
2022-10-12T01:57:15.080Z,100308.06
2022-10-12T01:58:43.665Z,100302.69
2022-10-12T02:00:16.457Z,100304.47
2022-10-12T02:03:08.896Z,100309.06
2022-10-12T02:04:31.555Z,100313.41
2022-10-12T02:05:56.059Z,100310.78
2022-10-12T02:07:25.207Z,100304.63
2022-10-12T02:08:50.849Z,100306.47
2022-10-12T02:10:00.035Z,100308.38
2022-10-12T02:11:11.143Z,100304.09
2022-10-12T02:12:30.587Z,100308.59
2022-10-12T02:14:02.099Z,100312.13
2022-10-12T02:15:13.910Z,100311.41
2022-10-12T02:16:30.617Z,100314.06
2022-10-12T02:17:43.079Z,100316.69
2022-10-12T02:18:57.764Z,100317.63
2022-10-12T02:20:13.675Z,100315.84
2022-10-12T02:21:24.923Z,100311.53
2022-10-12T02:22:37.075Z,100314.31
2022-10-12T02:23:42.099Z,100307.53
2022-10-12T02:24:51.689Z,100316.56
2022-10-12T02:26:02.731Z,100307.13
2022-10-12T02:27:14.957Z,100313.38
2022-10-12T02:28:25.499Z,100310.81
2022-10-12T02:29:44.828Z,100306.38
2022-10-12T02:31:13.548Z,100310.03
2022-10-12T02:33:04.759Z,100313.47
2022-10-12T02:34:19.447Z,100314.38
2022-10-12T02:35:41.899Z,100312.69
2022-10-12T02:37:14.240Z,100307.63
2022-10-12T02:38:45.880Z,100313.88
2022-10-12T02:39:55.223Z,100318.44
2022-10-12T02:41:17.525Z,100314.06
2022-10-12T02:42:58.508Z,100313.16
2022-10-12T02:44:08.708Z,100312.16
2022-10-12T02:45:17.280Z,100316.50
2022-10-12T02:46:26.888Z,100320.03
2022-10-12T02:47:35.983Z,100320.91
2022-10-12T02:48:46.786Z,100311.97
2022-10-12T02:49:54.410Z,100314.50
2022-10-12T02:51:00.267Z,100317.19
2022-10-12T02:52:07.213Z,100312.78
2022-10-12T02:53:12.805Z,100324.09
2022-10-12T02:54:16.650Z,100316.25
2022-10-12T02:55:25.506Z,100319.66
2022-10-12T02:56:29.620Z,100313.47
2022-10-12T02:57:33.510Z,100316.97
2022-10-12T02:58:37.486Z,100313.53
2022-10-12T02:59:43.890Z,100318.81
2022-10-12T03:00:47.671Z,100319.78
2022-10-12T03:01:51.533Z,100317.94
2022-10-12T03:02:55.056Z,100324.97
2022-10-12T03:03:58.630Z,100324.97
2022-10-12T03:05:02.302Z,100316.09
2022-10-12T03:06:06.303Z,100331.03
2022-10-12T03:07:09.827Z,100325.06
2022-10-12T03:08:13.621Z,100323.34
2022-10-12T03:09:17.343Z,100321.75
2022-10-12T03:10:20.923Z,100323.53
2022-10-12T03:11:25.080Z,100322.72
2022-10-12T03:12:30.000Z,100323.84
2022-10-12T03:13:35.191Z,100322.97
2022-10-12T03:14:44.867Z,100326.44
2022-10-12T03:15:49.641Z,100325.56
2022-10-12T03:16:53.683Z,100320.22
2022-10-12T03:17:58.641Z,100317.63
2022-10-12T03:19:02.239Z,100323.72
2022-10-12T03:20:08.675Z,100323.78
2022-10-12T03:21:16.903Z,100318.56
2022-10-12T03:22:25.057Z,100318.56
2022-10-12T03:23:31.534Z,100318.56
2022-10-12T03:24:38.046Z,100317.63
2022-10-12T03:25:44.508Z,100320.28
2022-10-12T03:26:48.332Z,100314.13
2022-10-12T03:27:56.194Z,100321.16
2022-10-12T03:29:03.841Z,100317.56
2022-10-12T03:30:13.349Z,100325.56
2022-10-12T03:31:20.385Z,100317.69
2022-10-12T03:32:24.076Z,100324.88
2022-10-12T03:33:28.044Z,100317.09
2022-10-12T03:34:32.441Z,100323.25
2022-10-12T03:35:37.815Z,100317.97
2022-10-12T03:36:41.519Z,100323.31
2022-10-12T03:37:46.704Z,100318.09
2022-10-12T03:38:50.565Z,100320.03
2022-10-12T03:39:55.108Z,100320.97
2022-10-12T03:41:06.418Z,100319.28
2022-10-12T03:42:16.493Z,100322.75
2022-10-12T03:43:21.437Z,100321.91
2022-10-12T03:44:29.270Z,100318.28
2022-10-12T03:45:33.415Z,100325.41
2022-10-12T03:46:38.101Z,100320.19
2022-10-12T03:47:46.235Z,100322.84
2022-10-12T03:48:54.800Z,100323.75
2022-10-12T03:50:00.657Z,100321.97
2022-10-12T03:51:06.107Z,100318.41
2022-10-12T03:52:14.564Z,100325.41
2022-10-12T03:53:21.673Z,100326.25
2022-10-12T03:54:25.688Z,100322.06
2022-10-12T03:55:30.470Z,100326.56
2022-10-12T03:56:37.402Z,100328.34
2022-10-12T03:57:42.002Z,100326.63
2022-10-12T03:58:59.713Z,100328.47
2022-10-12T04:00:06.689Z,100327.78
2022-10-12T04:01:16.339Z,100339.28
2022-10-12T04:02:21.400Z,100333.22
2022-10-12T04:03:29.241Z,100337.66
2022-10-12T04:04:37.566Z,100338.63
2022-10-12T04:05:58.749Z,100338.72
2022-10-12T04:07:02.339Z,100338.69
2022-10-12T04:08:07.244Z,100336.06
2022-10-12T04:09:12.292Z,100337.00
2022-10-12T04:10:16.845Z,100337.00
2022-10-12T04:11:20.899Z,100339.63
2022-10-12T04:12:25.498Z,100329.91
2022-10-12T04:13:29.620Z,100336.06
2022-10-12T04:14:33.310Z,100339.56
2022-10-12T04:15:42.196Z,100336.09
2022-10-12T04:16:46.966Z,100336.97
2022-10-12T04:17:53.906Z,100344.00
2022-10-12T04:19:00.030Z,100338.84
2022-10-12T04:20:17.771Z,100345.06
2022-10-12T04:21:26.312Z,100339.94
2022-10-12T04:22:30.334Z,100336.56
2022-10-12T04:23:33.922Z,100340.00
2022-10-12T04:24:37.657Z,100345.34
2022-10-12T04:25:41.454Z,100345.34
2022-10-12T04:26:46.334Z,100343.56
2022-10-12T04:27:50.171Z,100342.75
2022-10-12T04:28:56.453Z,100335.66
2022-10-12T04:30:00.026Z,100345.34
2022-10-12T04:31:03.675Z,100350.63
2022-10-12T04:32:12.329Z,100345.34
2022-10-12T04:33:16.277Z,100340.06
2022-10-12T04:34:20.702Z,100344.41
2022-10-12T04:35:30.275Z,100339.06
2022-10-12T04:36:41.550Z,100343.50
2022-10-12T04:37:45.770Z,100347.06
2022-10-12T04:38:51.951Z,100345.34
2022-10-12T04:39:56.251Z,100342.63
2022-10-12T04:41:00.035Z,100345.34
2022-10-12T04:42:10.193Z,100353.25
2022-10-12T04:43:19.918Z,100342.78
2022-10-12T04:44:31.948Z,100349.75
2022-10-12T04:45:39.468Z,100346.19
2022-10-12T04:46:45.741Z,100343.66
2022-10-12T04:47:53.370Z,100348.91
2022-10-12T04:49:02.220Z,100342.78
2022-10-12T04:50:13.900Z,100340.97
2022-10-12T04:51:20.442Z,100345.22
2022-10-12T04:52:24.758Z,100342.69
2022-10-12T04:53:33.074Z,100335.66
2022-10-12T04:54:45.033Z,100342.84
2022-10-12T04:55:55.713Z,100340.28
2022-10-12T04:57:03.859Z,100335.94
2022-10-12T04:58:22.534Z,100338.78
2022-10-12T04:59:41.814Z,100344.13
2022-10-12T05:00:50.297Z,100345.78
2022-10-12T05:01:54.650Z,100344.97
2022-10-12T05:02:58.673Z,100340.50
2022-10-12T05:04:02.596Z,100339.56
2022-10-12T05:05:08.269Z,100337.78
2022-10-12T05:06:12.580Z,100350.06
2022-10-12T05:07:16.622Z,100349.22
2022-10-12T05:08:21.754Z,100348.25
2022-10-12T05:09:25.915Z,100347.44
2022-10-12T05:10:30.628Z,100350.06
2022-10-12T05:11:37.699Z,100348.25
2022-10-12T05:12:43.232Z,100351.75
2022-10-12T05:13:47.114Z,100352.63
2022-10-12T05:14:51.277Z,100351.84
2022-10-12T05:15:58.837Z,100357.53
2022-10-12T05:17:02.830Z,100360.19
2022-10-12T05:19:41.029Z,100358.19
2022-10-12T05:20:47.118Z,100356.28
2022-10-12T05:21:55.280Z,100357.97
2022-10-12T05:22:59.595Z,100366.69
2022-10-12T05:24:03.337Z,100360.38
2022-10-12T05:25:08.230Z,100371.69
2022-10-12T05:26:12.245Z,100362.78
2022-10-12T05:27:16.313Z,100366.91
2022-10-12T05:28:21.766Z,100363.25
2022-10-12T05:29:28.101Z,100364.81
2022-10-12T05:30:32.225Z,100367.25
2022-10-12T05:31:37.002Z,100372.44
2022-10-12T05:32:41.813Z,100358.19
2022-10-12T05:33:46.291Z,100368.72
2022-10-12T05:34:51.456Z,100365.88
2022-10-12T05:35:58.335Z,100365.72
2022-10-12T05:37:02.801Z,100361.31
2022-10-12T05:38:07.014Z,100360.38
2022-10-12T05:39:10.970Z,100362.09
2022-10-12T05:40:16.164Z,100364.88
2022-10-12T05:41:20.886Z,100360.31
2022-10-12T05:42:25.039Z,100369.00
2022-10-12T05:43:30.045Z,100366.28
2022-10-12T05:44:37.935Z,100360.84
2022-10-12T05:45:46.887Z,100364.28
2022-10-12T05:46:53.534Z,100367.66
2022-10-12T05:47:58.810Z,100363.91
2022-10-12T05:49:04.017Z,100361.97
2022-10-12T05:50:10.388Z,100360.00
2022-10-12T05:51:15.900Z,100358.00
2022-10-12T05:52:22.787Z,100362.28
2022-10-12T05:53:30.158Z,100364.72
2022-10-12T05:54:36.945Z,100364.53
2022-10-12T05:55:41.799Z,100365.53
2022-10-12T05:56:46.637Z,100363.53
2022-10-12T05:57:52.075Z,100361.50
2022-10-12T05:58:57.024Z,100366.56
2022-10-12T06:00:01.799Z,100362.94
2022-10-12T06:01:13.943Z,100370.56
2022-10-12T06:02:20.794Z,100373.13
2022-10-12T06:03:35.206Z,100375.56
2022-10-12T06:04:42.117Z,100370.16
2022-10-12T06:05:52.056Z,100369.09
2022-10-12T06:06:58.024Z,100376.81
2022-10-12T06:08:01.621Z,100376.75
2022-10-12T06:09:05.894Z,100378.28
2022-10-12T06:10:13.682Z,100375.56
2022-10-12T06:11:17.884Z,100376.31
2022-10-12T06:12:25.428Z,100377.63
2022-10-12T06:13:30.341Z,100367.97
2022-10-12T06:14:34.599Z,100373.78
2022-10-12T06:15:38.581Z,100370.81
2022-10-12T06:16:42.396Z,100372.41
2022-10-12T06:17:48.984Z,100374.88
2022-10-12T06:18:55.307Z,100373.00
2022-10-12T06:19:59.293Z,100370.28
2022-10-12T06:21:28.524Z,100371.94
2022-10-12T06:22:29.737Z,100368.31
2022-10-12T06:23:33.684Z,100375.38
2022-10-12T06:24:38.553Z,100369.09
2022-10-12T06:25:42.607Z,100376.97
2022-10-12T06:26:46.277Z,100377.03
2022-10-12T06:27:50.657Z,100384.78
2022-10-12T06:28:54.324Z,100375.97
2022-10-12T06:29:58.136Z,100374.91
2022-10-12T06:31:02.068Z,100380.13
2022-10-12T06:32:05.990Z,100380.00
2022-10-12T06:33:10.045Z,100377.34
2022-10-12T06:34:13.935Z,100377.13
2022-10-12T06:35:19.946Z,100382.22
2022-10-12T06:36:24.256Z,100373.28
2022-10-12T06:37:49.189Z,100375.91
2022-10-12T06:38:54.366Z,100374.09
2022-10-12T06:39:58.133Z,100378.19
2022-10-12T06:41:01.800Z,100382.25
2022-10-12T06:42:06.258Z,100378.81
2022-10-12T06:43:10.359Z,100380.25
2022-10-12T06:44:14.553Z,100379.25
2022-10-12T06:45:19.460Z,100380.03
2022-10-12T06:46:23.272Z,100378.31
2022-10-12T06:47:29.291Z,100378.31
2022-10-12T06:48:32.990Z,100378.25
2022-10-12T06:49:36.920Z,100382.50
2022-10-12T06:50:40.883Z,100387.44
2022-10-12T06:51:44.688Z,100382.84
2022-10-12T06:52:48.626Z,100375.53
2022-10-12T06:53:56.877Z,100383.28
2022-10-12T06:55:00.905Z,100383.13
2022-10-12T06:56:12.150Z,100381.13
2022-10-12T06:57:15.994Z,100388.75
2022-10-12T06:58:19.994Z,100380.38
2022-10-12T06:59:24.194Z,100380.00
2022-10-12T07:00:28.278Z,100384.09
2022-10-12T07:01:32.096Z,100380.19
2022-10-12T07:02:36.645Z,100379.19
2022-10-12T07:03:40.917Z,100378.13
2022-10-12T07:04:49.195Z,100382.34
2022-10-12T07:05:53.135Z,100376.09
2022-10-12T07:06:57.007Z,100381.81
2022-10-12T07:08:01.112Z,100386.97
2022-10-12T07:09:05.639Z,100375.34
2022-10-12T07:10:11.340Z,100385.41
2022-10-12T07:11:15.702Z,100385.19
2022-10-12T07:12:20.311Z,100385.75
2022-10-12T07:13:25.058Z,100382.44
2022-10-12T07:14:29.337Z,100385.16
2022-10-12T07:15:33.095Z,100386.94
2022-10-12T07:16:40.066Z,100382.59
2022-10-12T07:17:44.804Z,100387.75
2022-10-12T07:18:48.789Z,100380.75
2022-10-12T07:19:52.926Z,100377.84
2022-10-12T07:21:00.202Z,100372.84
2022-10-12T07:22:04.372Z,100371.97
2022-10-12T07:23:08.819Z,100380.59
2022-10-12T07:24:13.639Z,100382.59
2022-10-12T07:25:18.006Z,100387.19
2022-10-12T07:26:21.842Z,100383.53
2022-10-12T07:27:26.256Z,100387.22
2022-10-12T07:28:30.586Z,100374.34
2022-10-12T07:29:35.201Z,100372.94
2022-10-12T07:30:39.538Z,100369.13
2022-10-12T07:31:46.407Z,100376.03
2022-10-12T07:32:55.537Z,100372.75
2022-10-12T07:33:59.392Z,100364.44
2022-10-12T07:35:03.350Z,100373.06
2022-10-12T07:36:21.389Z,100371.53
2022-10-12T07:37:25.905Z,100369.22
2022-10-12T07:38:30.166Z,100361.75
2022-10-12T07:39:33.983Z,100363.44
2022-10-12T07:40:37.930Z,100373.34
2022-10-12T07:41:42.247Z,100375.06
2022-10-12T07:43:11.866Z,100365.56
2022-10-12T07:44:10.832Z,100359.81
2022-10-12T07:45:14.670Z,100360.44
2022-10-12T07:46:18.310Z,100361.88
2022-10-12T07:47:22.164Z,100363.06
2022-10-12T07:48:25.790Z,100355.78
2022-10-12T07:49:29.932Z,100350.53
2022-10-12T07:50:33.757Z,100348.53
2022-10-12T07:51:37.975Z,100344.53
2022-10-12T07:52:42.712Z,100356.66
2022-10-12T07:53:47.041Z,100350.88
2022-10-12T07:54:50.863Z,100355.22
2022-10-12T07:56:05.499Z,100353.22
2022-10-12T07:57:09.425Z,100353.25
2022-10-12T07:58:13.564Z,100341.25
2022-10-12T07:59:17.223Z,100344.59
2022-10-12T08:00:22.284Z,100340.41
2022-10-12T08:01:32.832Z,100338.81
2022-10-12T08:02:37.046Z,100344.53
2022-10-12T08:03:41.088Z,100338.88
2022-10-12T08:04:45.759Z,100337.53
2022-10-12T08:05:49.793Z,100340.28
2022-10-12T08:06:53.358Z,100347.06
2022-10-12T08:07:57.166Z,100348.34
2022-10-12T08:09:03.295Z,100348.41
2022-10-12T08:10:07.461Z,100348.81
2022-10-12T08:11:12.680Z,100346.13
2022-10-12T08:12:17.160Z,100352.09
2022-10-12T08:13:21.055Z,100347.00
2022-10-12T08:14:24.856Z,100344.41
2022-10-12T08:15:28.503Z,100346.59
2022-10-12T08:16:32.954Z,100348.84
2022-10-12T08:17:36.866Z,100347.59
2022-10-12T08:18:41.324Z,100337.16
2022-10-12T08:19:45.224Z,100341.59
2022-10-12T08:20:48.960Z,100349.50
2022-10-12T08:21:52.966Z,100352.28
2022-10-12T08:22:56.555Z,100350.16
2022-10-12T08:24:00.305Z,100346.66
2022-10-12T08:25:04.421Z,100344.50
2022-10-12T08:26:08.147Z,100341.75
2022-10-12T08:27:11.893Z,100339.09
2022-10-12T08:28:15.417Z,100332.22
2022-10-12T08:29:19.125Z,100334.16
2022-10-12T08:30:27.013Z,100337.31
2022-10-12T08:31:30.800Z,100337.56
2022-10-12T08:32:34.799Z,100337.94
2022-10-12T08:33:39.007Z,100328.66
2022-10-12T08:34:42.549Z,100330.75
2022-10-12T08:35:50.688Z,100335.25
2022-10-12T08:36:54.538Z,100329.13
2022-10-12T08:37:58.469Z,100327.59
2022-10-12T08:39:02.743Z,100326.56
2022-10-12T08:40:08.339Z,100325.97
2022-10-12T08:41:48.762Z,100328.22
2022-10-12T08:43:29.345Z,100328.34
2022-10-12T08:44:57.189Z,100333.25
2022-10-12T08:46:04.394Z,100332.59
2022-10-12T08:47:41.988Z,100325.72
2022-10-12T08:49:12.981Z,100325.16
2022-10-12T08:50:52.973Z,100325.41
2022-10-12T08:52:04.528Z,100327.69
2022-10-12T08:53:23.252Z,100336.91
2022-10-12T08:54:49.712Z,100332.69
2022-10-12T08:55:53.699Z,100330.00
2022-10-12T08:56:58.250Z,100335.25
2022-10-12T08:58:03.253Z,100337.59
2022-10-12T08:59:17.196Z,100332.75
2022-10-12T09:00:21.185Z,100334.41
2022-10-12T09:01:57.841Z,100335.69
2022-10-12T09:03:27.420Z,100337.50
2022-10-12T09:05:17.714Z,100340.56
2022-10-12T09:06:28.914Z,100337.63
2022-10-12T09:07:42.364Z,100349.69
2022-10-12T09:09:18.597Z,100334.81
2022-10-12T09:11:25.468Z,100338.22
2022-10-12T09:12:43.993Z,100340.19
2022-10-12T09:13:59.922Z,100336.72
2022-10-12T09:15:15.083Z,100331.41
2022-10-12T09:16:25.404Z,100335.06
2022-10-12T09:17:50.125Z,100339.75
2022-10-12T09:19:01.202Z,100330.25
2022-10-12T09:20:19.182Z,100338.19
2022-10-12T09:21:26.824Z,100331.34
2022-10-12T09:22:34.419Z,100328.09
2022-10-12T09:23:45.520Z,100333.31
2022-10-12T09:24:53.154Z,100330.81
2022-10-12T09:26:15.915Z,100334.03
2022-10-12T09:27:20.809Z,100319.97
2022-10-12T09:28:40.721Z,100331.16
2022-10-12T09:29:55.466Z,100331.75
2022-10-12T09:31:23.708Z,100327.59
2022-10-12T09:33:17.698Z,100334.97
2022-10-12T09:34:21.481Z,100328.47
2022-10-12T09:35:25.720Z,100335.19
2022-10-12T09:36:35.402Z,100331.59
2022-10-12T09:37:40.589Z,100333.22
2022-10-12T09:38:44.260Z,100337.88
2022-10-12T09:39:49.041Z,100335.94
2022-10-12T09:40:53.064Z,100330.22
2022-10-12T09:41:56.794Z,100339.19
2022-10-12T09:43:03.841Z,100340.16
2022-10-12T09:44:26.933Z,100330.53
2022-10-12T09:45:34.904Z,100331.75
2022-10-12T09:46:48.813Z,100328.09
2022-10-12T09:48:16.284Z,100332.00
2022-10-12T09:49:20.579Z,100328.47
2022-10-12T09:51:03.392Z,100330.19
2022-10-12T09:52:09.388Z,100326.03
2022-10-12T09:53:24.602Z,100327.00
2022-10-12T09:54:29.549Z,100335.91
2022-10-12T09:55:33.567Z,100325.16
2022-10-12T09:56:44.701Z,100329.81
2022-10-12T09:58:03.022Z,100323.59
2022-10-12T09:59:26.395Z,100331.16
2022-10-12T10:00:33.693Z,100332.50
2022-10-12T10:01:39.345Z,100326.53
2022-10-12T10:02:51.883Z,100327.00
2022-10-12T10:04:27.247Z,100332.38
2022-10-12T10:05:36.335Z,100332.97
2022-10-12T10:06:44.954Z,100327.56
2022-10-12T10:07:48.969Z,100330.13
2022-10-12T10:08:52.948Z,100329.81
2022-10-12T10:10:28.324Z,100325.44
2022-10-12T10:11:33.721Z,100326.63
2022-10-12T10:13:03.105Z,100325.13
2022-10-12T10:14:15.569Z,100320.97
2022-10-12T10:15:39.478Z,100315.84
2022-10-12T10:16:52.587Z,100318.66
2022-10-12T10:18:54.554Z,100325.78
2022-10-12T10:20:03.080Z,100324.31
2022-10-12T10:21:24.728Z,100321.84
2022-10-12T10:22:30.978Z,100319.94
2022-10-12T10:23:51.673Z,100312.13
2022-10-12T10:25:00.408Z,100317.31
2022-10-12T10:26:20.310Z,100317.03
2022-10-12T10:27:40.346Z,100320.56
2022-10-12T10:28:47.148Z,100320.78
2022-10-12T10:30:04.696Z,100313.72
2022-10-12T10:31:21.409Z,100314.28
2022-10-12T10:32:30.251Z,100311.44
2022-10-12T10:33:36.960Z,100314.44
2022-10-12T10:34:43.928Z,100310.19
2022-10-12T10:36:00.667Z,100314.88
2022-10-12T10:37:06.499Z,100309.44
2022-10-12T10:38:15.932Z,100310.59
2022-10-12T10:39:40.782Z,100307.91
2022-10-12T10:40:52.880Z,100305.03
2022-10-12T10:42:09.871Z,100306.00
2022-10-12T10:43:30.722Z,100302.34
2022-10-12T10:44:36.531Z,100308.22
2022-10-12T10:45:58.812Z,100299.03
2022-10-12T10:47:10.824Z,100302.44
2022-10-12T10:48:23.547Z,100304.38
2022-10-12T10:49:55.923Z,100301.91
2022-10-12T10:51:07.296Z,100299.97
2022-10-12T10:52:36.607Z,100306.53
2022-10-12T10:53:50.518Z,100297.75
2022-10-12T10:55:23.674Z,100291.75
2022-10-12T10:56:32.146Z,100294.25
2022-10-12T10:57:40.632Z,100302.47
2022-10-12T10:58:46.865Z,100307.81
2022-10-12T11:00:26.459Z,100295.53
2022-10-12T11:01:52.943Z,100297.03
2022-10-12T11:03:04.102Z,100294.84
2022-10-12T11:04:39.981Z,100299.59
2022-10-12T11:05:58.238Z,100292.84
2022-10-12T11:07:23.976Z,100297.97
2022-10-12T11:08:32.227Z,100300.88
2022-10-12T11:09:45.594Z,100289.84
2022-10-12T11:11:13.140Z,100291.22
2022-10-12T11:12:31.264Z,100298.63
2022-10-12T11:13:49.056Z,100293.94
2022-10-12T11:15:01.559Z,100292.97
2022-10-12T11:16:22.005Z,100293.38
2022-10-12T11:17:44.312Z,100298.72
2022-10-12T11:18:56.623Z,100297.34
2022-10-12T11:20:40.157Z,100292.13
2022-10-12T11:21:57.980Z,100294.91
2022-10-12T11:23:23.730Z,100289.31
2022-10-12T11:24:40.794Z,100288.78
2022-10-12T11:26:19.939Z,100286.00
2022-10-12T11:27:36.255Z,100290.06
2022-10-12T11:28:42.470Z,100286.00
2022-10-12T11:29:58.153Z,100285.91
2022-10-12T11:31:31.837Z,100284.59
2022-10-12T11:32:48.718Z,100284.16
2022-10-12T11:33:56.939Z,100279.25
2022-10-12T11:35:06.040Z,100283.41
2022-10-12T11:36:19.652Z,100280.00
2022-10-12T11:37:36.353Z,100283.63
2022-10-12T11:38:48.483Z,100277.63
2022-10-12T11:39:55.564Z,100271.97
2022-10-12T11:41:34.549Z,100274.84
2022-10-12T11:42:43.780Z,100277.75
2022-10-12T11:44:15.827Z,100272.38
2022-10-12T11:45:41.150Z,100272.28
2022-10-12T11:47:04.837Z,100270.34
2022-10-12T11:48:15.341Z,100264.16
2022-10-12T11:49:55.894Z,100270.34
2022-10-12T11:51:04.191Z,100270.16
2022-10-12T11:52:13.334Z,100273.44
2022-10-12T11:53:28.876Z,100264.34
2022-10-12T11:55:05.710Z,100260.91
2022-10-12T11:56:35.263Z,100261.56
2022-10-12T11:57:39.843Z,100267.25
2022-10-12T11:59:00.377Z,100265.41
2022-10-12T12:00:28.669Z,100267.59
2022-10-12T12:01:58.402Z,100251.53
2022-10-12T12:03:14.428Z,100272.47
2022-10-12T12:04:43.414Z,100254.94
2022-10-12T12:05:48.509Z,100260.72
2022-10-12T12:07:04.890Z,100259.53
2022-10-12T12:08:39.256Z,100262.00
2022-10-12T12:09:49.504Z,100264.81
2022-10-12T12:11:28.616Z,100258.34
2022-10-12T12:12:33.009Z,100262.50
2022-10-12T12:13:37.536Z,100259.31
2022-10-12T12:15:00.181Z,100259.44
2022-10-12T12:16:12.653Z,100262.59
2022-10-12T12:17:19.551Z,100256.53
2022-10-12T12:18:35.046Z,100255.56
2022-10-12T12:19:42.681Z,100252.03
2022-10-12T12:20:49.107Z,100257.25
2022-10-12T12:22:32.073Z,100256.81
2022-10-12T12:23:54.039Z,100257.53
2022-10-12T12:25:10.836Z,100250.88
2022-10-12T12:26:18.167Z,100248.47
2022-10-12T12:27:42.268Z,100251.53
2022-10-12T12:28:52.613Z,100248.72
2022-10-12T12:29:58.540Z,100246.91
2022-10-12T12:31:13.676Z,100248.59
2022-10-12T12:32:17.749Z,100251.41
2022-10-12T12:33:21.442Z,100256.97
2022-10-12T12:34:27.025Z,100252.50
2022-10-12T12:35:40.092Z,100253.84
2022-10-12T12:36:51.649Z,100254.81
2022-10-12T12:38:13.390Z,100252.66
2022-10-12T12:39:34.124Z,100248.75
2022-10-12T12:40:53.887Z,100244.25
2022-10-12T12:42:02.495Z,100248.53
2022-10-12T12:43:29.135Z,100246.97
2022-10-12T12:44:36.858Z,100248.56
2022-10-12T12:45:58.084Z,100245.88
2022-10-12T12:47:01.866Z,100242.97
2022-10-12T12:48:10.965Z,100243.72
2022-10-12T12:49:37.751Z,100236.91
2022-10-12T12:50:41.835Z,100241.16
2022-10-12T12:51:46.272Z,100242.13
2022-10-12T12:52:52.262Z,100250.63
2022-10-12T12:54:21.750Z,100242.81
2022-10-12T12:56:14.432Z,100236.22
2022-10-12T12:57:54.398Z,100233.91
2022-10-12T12:59:22.366Z,100237.56
2022-10-12T13:00:52.402Z,100238.53
2022-10-12T13:02:20.623Z,100239.59
2022-10-12T13:04:21.208Z,100238.88
2022-10-12T13:06:07.643Z,100228.63
2022-10-12T13:07:39.572Z,100231.53
2022-10-12T13:08:58.701Z,100231.53
2022-10-12T13:10:47.040Z,100226.78
2022-10-12T13:12:14.613Z,100225.22
2022-10-12T13:14:00.648Z,100218.81
2022-10-12T13:15:24.676Z,100220.28
2022-10-12T13:18:53.210Z,100218.56
2022-10-12T13:19:57.054Z,100220.41
2022-10-12T13:21:01.682Z,100226.25
2022-10-12T13:22:19.269Z,100218.84
2022-10-12T13:23:27.245Z,100228.09
2022-10-12T13:24:42.157Z,100215.69
2022-10-12T13:25:57.271Z,100217.41
2022-10-12T13:27:18.669Z,100222.75
2022-10-12T13:28:29.445Z,100232.84
2022-10-12T13:29:48.955Z,100227.63
2022-10-12T13:31:02.919Z,100230.53
2022-10-12T13:32:26.900Z,100222.03
2022-10-12T13:33:54.082Z,100219.09
2022-10-12T13:35:08.588Z,100220.72
2022-10-12T13:36:29.633Z,100218.75
2022-10-12T13:37:35.739Z,100220.25
2022-10-12T13:38:40.340Z,100216.47
2022-10-12T13:39:47.374Z,100216.47
2022-10-12T13:41:07.446Z,100221.31
2022-10-12T13:42:35.874Z,100219.72
2022-10-12T13:43:48.731Z,100208.16
2022-10-12T13:44:52.836Z,100215.81
2022-10-12T13:45:56.580Z,100212.09